sensor_id;sensor_type;location;lat;lon;timestamp;pressure;altitude;pressure_sealevel;temperature;humidity
37420;BME280;47344;52.374;4.816;2023-01-28T00:01:04;103022.0;;;4.95;85.61
37420;BME280;47344;52.374;4.816;2023-01-28T00:02:41;103019.0;;;4.91;86.05
37420;BME280;47344;52.374;4.816;2023-01-28T00:04:17;103019.0;;;5.17;84.92
37420;BME280;47344;52.374;4.816;2023-01-28T00:07:38;103022.0;;;5.24;84.19
37420;BME280;47344;52.374;4.816;2023-01-28T00:09:14;103021.0;;;5.3;83.95
37420;BME280;47344;52.374;4.816;2023-01-28T00:10:50;103024.0;;;5.17;84.14
37420;BME280;47344;52.374;4.816;2023-01-28T00:12:26;103020.0;;;5.26;83.9
37420;BME280;47344;52.374;4.816;2023-01-28T00:15:41;103013.00000000001;;;5.32;83.95
37420;BME280;47344;52.374;4.816;2023-01-28T00:17:17;103017.0;;;5.3;83.63
37420;BME280;47344;52.374;4.816;2023-01-28T00:18:53;103006.0;;;5.48;83.24
37420;BME280;47344;52.374;4.816;2023-01-28T00:22:07;103003.0;;;5.31;83.43
37420;BME280;47344;52.374;4.816;2023-01-28T00:23:47;103001.0;;;5.42;83.2
37420;BME280;47344;52.374;4.816;2023-01-28T00:25:26;102999.0;;;5.37;83.29
37420;BME280;47344;52.374;4.816;2023-01-28T00:27:02;103000.0;;;5.33;83.4
37420;BME280;47344;52.374;4.816;2023-01-28T00:30:16;102996.0;;;5.31;83.85
37420;BME280;47344;52.374;4.816;2023-01-28T00:31:53;103003.0;;;5.33;84.02
37420;BME280;47344;52.374;4.816;2023-01-28T00:33:31;103006.0;;;5.15;84.81
37420;BME280;47344;52.374;4.816;2023-01-28T00:36:44;103008.0;;;4.99;86.24
37420;BME280;47344;52.374;4.816;2023-01-28T00:38:20;103008.0;;;4.83;86.61
37420;BME280;47344;52.374;4.816;2023-01-28T00:39:57;103008.99999999999;;;4.84;86.82
37420;BME280;47344;52.374;4.816;2023-01-28T00:41:33;103011.99999999999;;;4.86;86.81
37420;BME280;47344;52.374;4.816;2023-01-28T00:44:45;103006.0;;;4.86;85.78
37420;BME280;47344;52.374;4.816;2023-01-28T00:46:22;103008.0;;;4.78;85.91
37420;BME280;47344;52.374;4.816;2023-01-28T00:47:59;103007.0;;;5.03;85.34
37420;BME280;47344;52.374;4.816;2023-01-28T00:51:13;103009.99999999999;;;5.0;84.96
37420;BME280;47344;52.374;4.816;2023-01-28T00:52:51;103006.0;;;5.03;84.75
37420;BME280;47344;52.374;4.816;2023-01-28T00:54:27;103008.99999999999;;;4.91;85.44
37420;BME280;47344;52.374;4.816;2023-01-28T00:57:42;103004.0;;;5.04;85.41
37420;BME280;47344;52.374;4.816;2023-01-28T00:59:18;103004.0;;;5.15;84.8
37420;BME280;47344;52.374;4.816;2023-01-28T01:00:55;103008.99999999999;;;5.16;84.9
37420;BME280;47344;52.374;4.816;2023-01-28T01:02:32;103004.0;;;5.22;84.46
37420;BME280;47344;52.374;4.816;2023-01-28T01:05:44;103005.0;;;5.18;84.27
37420;BME280;47344;52.374;4.816;2023-01-28T01:07:22;103015.00000000001;;;5.2;84.06
37420;BME280;47344;52.374;4.816;2023-01-28T01:08:59;103013.00000000001;;;5.13;84.2
37420;BME280;47344;52.374;4.816;2023-01-28T01:12:13;103008.99999999999;;;4.95;84.65
37420;BME280;47344;52.374;4.816;2023-01-28T01:13:51;103006.0;;;4.75;85.7
37420;BME280;47344;52.374;4.816;2023-01-28T01:15:28;103009.99999999999;;;4.95;85.23
37420;BME280;47344;52.374;4.816;2023-01-28T01:18:42;102999.0;;;5.04;84.44
37420;BME280;47344;52.374;4.816;2023-01-28T01:20:21;103004.0;;;5.01;84.58
37420;BME280;47344;52.374;4.816;2023-01-28T01:21:57;103001.0;;;5.07;84.33
37420;BME280;47344;52.374;4.816;2023-01-28T01:23:33;103002.0;;;5.08;84.18
37420;BME280;47344;52.374;4.816;2023-01-28T01:26:49;102996.0;;;4.87;85.5
37420;BME280;47344;52.374;4.816;2023-01-28T01:28:25;102998.0;;;5.12;85.06
37420;BME280;47344;52.374;4.816;2023-01-28T01:30:01;102999.0;;;5.26;84.34
37420;BME280;47344;52.374;4.816;2023-01-28T01:33:15;103014.00000000001;;;5.2;84.29
37420;BME280;47344;52.374;4.816;2023-01-28T01:34:51;103007.0;;;5.09;84.44
37420;BME280;47344;52.374;4.816;2023-01-28T01:36:27;103011.99999999999;;;5.05;84.42
37420;BME280;47344;52.374;4.816;2023-01-28T01:38:05;103007.0;;;5.26;83.57
37420;BME280;47344;52.374;4.816;2023-01-28T01:41:23;102999.0;;;5.26;83.01
37420;BME280;47344;52.374;4.816;2023-01-28T01:43:00;103006.0;;;5.2;82.32
37420;BME280;47344;52.374;4.816;2023-01-28T01:44:55;103011.99999999999;;;5.33;82.17
37420;BME280;47344;52.374;4.816;2023-01-28T01:46:37;103006.0;;;5.18;82.0
37420;BME280;47344;52.374;4.816;2023-01-28T01:50:01;103011.99999999999;;;5.19;81.89
37420;BME280;47344;52.374;4.816;2023-01-28T01:51:42;103002.0;;;5.26;81.63
37420;BME280;47344;52.374;4.816;2023-01-28T01:53:22;103002.0;;;5.4;81.5
37420;BME280;47344;52.374;4.816;2023-01-28T01:55:05;103002.0;;;5.31;81.14
37420;BME280;47344;52.374;4.816;2023-01-28T01:58:29;103005.0;;;5.22;81.17
37420;BME280;47344;52.374;4.816;2023-01-28T02:00:09;103006.0;;;5.2;80.64
37420;BME280;47344;52.374;4.816;2023-01-28T02:01:46;103011.99999999999;;;5.24;80.86
37420;BME280;47344;52.374;4.816;2023-01-28T02:03:27;103009.99999999999;;;5.3;80.63
37420;BME280;47344;52.374;4.816;2023-01-28T02:06:45;103008.0;;;5.43;80.47
37420;BME280;47344;52.374;4.816;2023-01-28T02:08:22;103008.99999999999;;;5.28;80.34
37420;BME280;47344;52.374;4.816;2023-01-28T02:09:58;103013.00000000001;;;5.37;80.45
37420;BME280;47344;52.374;4.816;2023-01-28T02:11:35;103019.0;;;5.36;80.58
37420;BME280;47344;52.374;4.816;2023-01-28T02:21:35;103019.0;;;5.27;80.66
37420;BME280;47344;52.374;4.816;2023-01-28T02:22:25;103017.0;;;5.3;80.44
37420;BME280;47344;52.374;4.816;2023-01-28T02:24:39;103021.0;;;5.3;80.27
37420;BME280;47344;52.374;4.816;2023-01-28T02:27:24;103021.0;;;5.23;80.33
37420;BME280;47344;52.374;4.816;2023-01-28T02:29:07;103024.0;;;5.19;80.61
37420;BME280;47344;52.374;4.816;2023-01-28T02:30:52;103015.00000000001;;;5.19;80.69
37420;BME280;47344;52.374;4.816;2023-01-28T02:32:41;103014.00000000001;;;5.2;80.91
37420;BME280;47344;52.374;4.816;2023-01-28T02:36:16;103015.00000000001;;;5.17;80.74
37420;BME280;47344;52.374;4.816;2023-01-28T02:38:03;103017.0;;;4.95;81.98
37420;BME280;47344;52.374;4.816;2023-01-28T02:39:48;103017.0;;;5.03;81.75
37420;BME280;47344;52.374;4.816;2023-01-28T02:41:32;103014.00000000001;;;5.13;81.49
37420;BME280;47344;52.374;4.816;2023-01-28T02:43:13;103017.0;;;5.11;81.08
37420;BME280;47344;52.374;4.816;2023-01-28T02:47:59;103018.0;;;5.05;80.83
37420;BME280;47344;52.374;4.816;2023-01-28T02:49:38;103026.0;;;5.07;81.19
37420;BME280;47344;52.374;4.816;2023-01-28T02:51:25;103021.0;;;5.04;81.72
37420;BME280;47344;52.374;4.816;2023-01-28T02:55:53;103014.00000000001;;;5.09;81.36
37420;BME280;47344;52.374;4.816;2023-01-28T02:57:38;103017.0;;;4.88;81.11
37420;BME280;47344;52.374;4.816;2023-01-28T03:01:21;103016.00000000001;;;4.78;82.11
37420;BME280;47344;52.374;4.816;2023-01-28T03:03:07;103011.99999999999;;;4.91;81.61
37420;BME280;47344;52.374;4.816;2023-01-28T03:04:53;103021.0;;;4.99;81.33
37420;BME280;47344;52.374;4.816;2023-01-28T03:06:40;103017.0;;;5.03;80.36
37420;BME280;47344;52.374;4.816;2023-01-28T03:09:26;103017.0;;;5.08;80.55
37420;BME280;47344;52.374;4.816;2023-01-28T03:36:54;103016.00000000001;;;5.0;80.36
37420;BME280;47344;52.374;4.816;2023-01-28T03:38:33;103013.00000000001;;;5.12;79.81
37420;BME280;47344;52.374;4.816;2023-01-28T03:40:18;103020.0;;;5.12;79.72
37420;BME280;47344;52.374;4.816;2023-01-28T03:41:58;103019.0;;;4.99;80.11
37420;BME280;47344;52.374;4.816;2023-01-28T03:43:35;103023.0;;;5.07;79.66
37420;BME280;47344;52.374;4.816;2023-01-28T03:46:50;103030.0;;;5.07;79.33
37420;BME280;47344;52.374;4.816;2023-01-28T03:48:27;103030.0;;;5.19;79.16
37420;BME280;47344;52.374;4.816;2023-01-28T03:50:07;103039.00000000001;;;5.0;79.06
37420;BME280;47344;52.374;4.816;2023-01-28T03:53:21;103031.0;;;5.13;78.78
37420;BME280;47344;52.374;4.816;2023-01-28T03:54:58;103032.0;;;5.17;78.55
37420;BME280;47344;52.374;4.816;2023-01-28T03:56:36;103042.0;;;5.26;78.28
37420;BME280;47344;52.374;4.816;2023-01-28T03:58:14;103044.0;;;5.25;77.92
37420;BME280;47344;52.374;4.816;2023-01-28T04:01:29;103045.0;;;4.95;78.55
37420;BME280;47344;52.374;4.816;2023-01-28T04:03:17;103042.0;;;4.7;79.41
37420;BME280;47344;52.374;4.816;2023-01-28T04:04:53;103043.0;;;5.09;78.84
37420;BME280;47344;52.374;4.816;2023-01-28T04:08:06;103044.0;;;5.05;78.28
37420;BME280;47344;52.374;4.816;2023-01-28T04:09:42;103038.00000000001;;;4.95;78.47
37420;BME280;47344;52.374;4.816;2023-01-28T04:11:20;103042.0;;;4.89;78.83
37420;BME280;47344;52.374;4.816;2023-01-28T04:12:56;103051.0;;;5.09;78.55
37420;BME280;47344;52.374;4.816;2023-01-28T04:16:09;103044.0;;;5.01;78.3
37420;BME280;47344;52.374;4.816;2023-01-28T04:17:45;103036.99999999999;;;5.14;78.08
37420;BME280;47344;52.374;4.816;2023-01-28T04:19:23;103030.0;;;5.14;78.05
37420;BME280;47344;52.374;4.816;2023-01-28T04:22:36;103024.0;;;5.12;78.08
37420;BME280;47344;52.374;4.816;2023-01-28T04:24:12;103024.0;;;4.96;78.36
37420;BME280;47344;52.374;4.816;2023-01-28T04:25:49;103033.0;;;4.91;78.8
37420;BME280;47344;52.374;4.816;2023-01-28T04:29:02;103028.0;;;4.99;79.3
37420;BME280;47344;52.374;4.816;2023-01-28T04:30:38;103022.0;;;5.01;79.11
37420;BME280;47344;52.374;4.816;2023-01-28T04:32:14;103020.0;;;5.14;78.87
37420;BME280;47344;52.374;4.816;2023-01-28T04:33:51;103018.0;;;5.05;79.12
37420;BME280;47344;52.374;4.816;2023-01-28T04:37:03;103022.0;;;5.07;79.22
37420;BME280;47344;52.374;4.816;2023-01-28T04:38:39;103021.0;;;4.83;80.16
37420;BME280;47344;52.374;4.816;2023-01-28T04:40:16;103019.0;;;4.91;80.41
37420;BME280;47344;52.374;4.816;2023-01-28T04:43:28;103025.0;;;4.92;80.44
37420;BME280;47344;52.374;4.816;2023-01-28T04:45:06;103018.0;;;4.91;80.28
37420;BME280;47344;52.374;4.816;2023-01-28T04:46:43;103020.0;;;4.92;80.05
37420;BME280;47344;52.374;4.816;2023-01-28T04:49:55;103030.0;;;4.91;80.16
37420;BME280;47344;52.374;4.816;2023-01-28T04:51:31;103041.00000000001;;;5.0;79.59
37420;BME280;47344;52.374;4.816;2023-01-28T04:53:07;103042.0;;;5.05;79.45
37420;BME280;47344;52.374;4.816;2023-01-28T04:54:44;103038.00000000001;;;5.08;79.52
37420;BME280;47344;52.374;4.816;2023-01-28T04:57:58;103043.0;;;5.24;78.91
37420;BME280;47344;52.374;4.816;2023-01-28T04:59:34;103043.0;;;5.11;79.11
37420;BME280;47344;52.374;4.816;2023-01-28T05:01:10;103049.0;;;5.0;79.11
37420;BME280;47344;52.374;4.816;2023-01-28T05:04:22;103046.0;;;5.11;79.0
37420;BME280;47344;52.374;4.816;2023-01-28T05:05:58;103047.0;;;5.17;78.5
37420;BME280;47344;52.374;4.816;2023-01-28T05:07:35;103045.0;;;4.99;79.16
37420;BME280;47344;52.374;4.816;2023-01-28T05:10:48;103036.99999999999;;;4.91;80.31
37420;BME280;47344;52.374;4.816;2023-01-28T05:12:24;103040.00000000001;;;4.88;80.08
37420;BME280;47344;52.374;4.816;2023-01-28T05:14:01;103039.00000000001;;;4.87;79.13
37420;BME280;47344;52.374;4.816;2023-01-28T05:15:37;103041.00000000001;;;4.92;78.5
37420;BME280;47344;52.374;4.816;2023-01-28T05:18:50;103030.0;;;5.09;77.72
37420;BME280;47344;52.374;4.816;2023-01-28T05:20:26;103033.0;;;5.12;77.5
37420;BME280;47344;52.374;4.816;2023-01-28T05:22:02;103038.00000000001;;;5.16;77.38
37420;BME280;47344;52.374;4.816;2023-01-28T05:25:14;103033.0;;;5.03;77.91
37420;BME280;47344;52.374;4.816;2023-01-28T05:26:50;103036.99999999999;;;5.19;77.77
37420;BME280;47344;52.374;4.816;2023-01-28T05:28:27;103036.99999999999;;;5.04;77.64
37420;BME280;47344;52.374;4.816;2023-01-28T05:31:43;103031.0;;;5.16;77.78
37420;BME280;47344;52.374;4.816;2023-01-28T05:33:19;103031.0;;;5.12;77.94
37420;BME280;47344;52.374;4.816;2023-01-28T05:34:55;103027.0;;;5.12;77.75
37420;BME280;47344;52.374;4.816;2023-01-28T05:36:31;103032.0;;;5.21;77.5
37420;BME280;47344;52.374;4.816;2023-01-28T05:39:44;103027.0;;;5.08;77.83
37420;BME280;47344;52.374;4.816;2023-01-28T05:41:20;103030.0;;;5.15;77.45
37420;BME280;47344;52.374;4.816;2023-01-28T05:42:56;103031.0;;;4.92;76.95
37420;BME280;47344;52.374;4.816;2023-01-28T05:46:08;103031.0;;;4.95;76.73
37420;BME280;47344;52.374;4.816;2023-01-28T05:47:44;103030.0;;;5.0;76.56
37420;BME280;47344;52.374;4.816;2023-01-28T05:49:21;103036.99999999999;;;4.95;77.34
37420;BME280;47344;52.374;4.816;2023-01-28T05:52:34;103036.99999999999;;;5.13;76.91
37420;BME280;47344;52.374;4.816;2023-01-28T05:54:11;103032.0;;;5.01;76.83
37420;BME280;47344;52.374;4.816;2023-01-28T05:55:47;103034.99999999999;;;5.11;76.55
37420;BME280;47344;52.374;4.816;2023-01-28T05:59:00;103031.0;;;5.12;76.44
37420;BME280;47344;52.374;4.816;2023-01-28T06:00:37;103036.99999999999;;;5.11;76.47
37420;BME280;47344;52.374;4.816;2023-01-28T06:02:13;103036.99999999999;;;5.19;76.09
37420;BME280;47344;52.374;4.816;2023-01-28T06:03:50;103034.99999999999;;;5.05;76.47
37420;BME280;47344;52.374;4.816;2023-01-28T06:07:02;103040.00000000001;;;5.19;76.48
37420;BME280;47344;52.374;4.816;2023-01-28T06:08:38;103046.0;;;5.12;76.42
37420;BME280;47344;52.374;4.816;2023-01-28T06:10:17;103046.0;;;5.15;76.08
37420;BME280;47344;52.374;4.816;2023-01-28T06:13:29;103039.00000000001;;;4.79;77.36
37420;BME280;47344;52.374;4.816;2023-01-28T06:15:06;103039.00000000001;;;4.97;77.06
37420;BME280;47344;52.374;4.816;2023-01-28T06:16:43;103038.00000000001;;;5.08;76.0
37420;BME280;47344;52.374;4.816;2023-01-28T06:19:55;103039.00000000001;;;4.92;76.83
37420;BME280;47344;52.374;4.816;2023-01-28T06:21:31;103033.0;;;4.91;76.92
37420;BME280;47344;52.374;4.816;2023-01-28T06:23:08;103034.99999999999;;;5.03;75.86
37420;BME280;47344;52.374;4.816;2023-01-28T06:24:45;103038.00000000001;;;5.12;75.66
37420;BME280;47344;52.374;4.816;2023-01-28T06:27:57;103042.0;;;5.11;75.77
37420;BME280;47344;52.374;4.816;2023-01-28T06:29:34;103045.0;;;4.95;75.74
37420;BME280;47344;52.374;4.816;2023-01-28T06:31:11;103046.0;;;5.05;75.91
37420;BME280;47344;52.374;4.816;2023-01-28T06:34:29;103042.0;;;5.13;75.55
37420;BME280;47344;52.374;4.816;2023-01-28T06:36:06;103041.00000000001;;;5.0;76.06
37420;BME280;47344;52.374;4.816;2023-01-28T06:37:44;103040.00000000001;;;5.09;76.34
37420;BME280;47344;52.374;4.816;2023-01-28T06:39:21;103042.0;;;4.91;77.3
37420;BME280;47344;52.374;4.816;2023-01-28T06:42:33;103041.00000000001;;;4.82;77.66
37420;BME280;47344;52.374;4.816;2023-01-28T06:44:10;103029.0;;;4.78;77.66
37420;BME280;47344;52.374;4.816;2023-01-28T06:45:47;103031.0;;;4.78;77.95
37420;BME280;47344;52.374;4.816;2023-01-28T06:48:59;103028.0;;;4.82;78.37
37420;BME280;47344;52.374;4.816;2023-01-28T06:50:35;103038.00000000001;;;4.82;78.02
37420;BME280;47344;52.374;4.816;2023-01-28T06:52:11;103034.99999999999;;;4.74;78.91
37420;BME280;47344;52.374;4.816;2023-01-28T06:55:23;103034.99999999999;;;4.71;78.87
37420;BME280;47344;52.374;4.816;2023-01-28T06:57:00;103036.99999999999;;;4.66;79.23
37420;BME280;47344;52.374;4.816;2023-01-28T06:58:36;103041.00000000001;;;4.62;79.89
37420;BME280;47344;52.374;4.816;2023-01-28T07:00:14;103036.99999999999;;;4.57;80.28
37420;BME280;47344;52.374;4.816;2023-01-28T07:03:27;103031.0;;;4.62;79.99
37420;BME280;47344;52.374;4.816;2023-01-28T07:05:04;103038.00000000001;;;4.53;80.3
37420;BME280;47344;52.374;4.816;2023-01-28T07:06:41;103040.00000000001;;;4.49;80.78
37420;BME280;47344;52.374;4.816;2023-01-28T07:09:53;103042.0;;;4.41;81.61
37420;BME280;47344;52.374;4.816;2023-01-28T07:11:29;103041.00000000001;;;4.43;81.66
37420;BME280;47344;52.374;4.816;2023-01-28T07:13:05;103033.99999999999;;;4.36;81.66
37420;BME280;47344;52.374;4.816;2023-01-28T07:16:17;103033.0;;;4.36;81.95
37420;BME280;47344;52.374;4.816;2023-01-28T07:17:53;103033.99999999999;;;4.41;81.66
37420;BME280;47344;52.374;4.816;2023-01-28T07:19:30;103044.0;;;4.46;81.72
37420;BME280;47344;52.374;4.816;2023-01-28T07:21:06;103045.0;;;4.46;81.12
37420;BME280;47344;52.374;4.816;2023-01-28T07:24:20;103046.0;;;4.41;81.61
37420;BME280;47344;52.374;4.816;2023-01-28T07:26:00;103050.0;;;4.51;81.36
37420;BME280;47344;52.374;4.816;2023-01-28T07:27:36;103052.0;;;4.49;80.56
37420;BME280;47344;52.374;4.816;2023-01-28T07:30:49;103058.0;;;4.63;80.33
37420;BME280;47344;52.374;4.816;2023-01-28T07:32:26;103054.0;;;4.62;80.77
37420;BME280;47344;52.374;4.816;2023-01-28T07:34:02;103053.0;;;4.49;80.87
37420;BME280;47344;52.374;4.816;2023-01-28T07:37:15;103061.99999999999;;;4.7;80.23
37420;BME280;47344;52.374;4.816;2023-01-28T07:38:51;103059.99999999999;;;4.76;79.25
37420;BME280;47344;52.374;4.816;2023-01-28T07:40:27;103066.00000000001;;;4.88;79.08
37420;BME280;47344;52.374;4.816;2023-01-28T07:42:04;103067.0;;;4.87;78.8
37420;BME280;47344;52.374;4.816;2023-01-28T07:45:16;103058.99999999999;;;4.82;78.97
37420;BME280;47344;52.374;4.816;2023-01-28T07:46:53;103057.0;;;4.62;79.7
37420;BME280;47344;52.374;4.816;2023-01-28T07:48:30;103058.0;;;4.7;79.27
37420;BME280;47344;52.374;4.816;2023-01-28T07:51:46;103067.0;;;4.49;80.36
37420;BME280;47344;52.374;4.816;2023-01-28T07:53:22;103065.00000000001;;;4.39;80.49
37420;BME280;47344;52.374;4.816;2023-01-28T07:54:58;103055.0;;;4.42;80.62
37420;BME280;47344;52.374;4.816;2023-01-28T07:58:11;103055.0;;;4.43;80.78
37420;BME280;47344;52.374;4.816;2023-01-28T07:59:48;103063.00000000001;;;4.25;81.05
37420;BME280;47344;52.374;4.816;2023-01-28T08:01:24;103061.99999999999;;;4.04;82.18
37420;BME280;47344;52.374;4.816;2023-01-28T08:03:02;103065.00000000001;;;4.14;81.81
37420;BME280;47344;52.374;4.816;2023-01-28T08:06:17;103067.0;;;4.1;82.16
37420;BME280;47344;52.374;4.816;2023-01-28T08:07:53;103065.00000000001;;;4.0;82.63
37420;BME280;47344;52.374;4.816;2023-01-28T08:09:29;103069.0;;;3.93;83.07
37420;BME280;47344;52.374;4.816;2023-01-28T08:12:50;103071.0;;;3.93;83.2
37420;BME280;47344;52.374;4.816;2023-01-28T08:14:27;103089.00000000001;;;3.95;83.4
37420;BME280;47344;52.374;4.816;2023-01-28T08:16:04;103082.0;;;3.85;83.78
37420;BME280;47344;52.374;4.816;2023-01-28T08:17:41;103096.0;;;3.82;85.41
37420;BME280;47344;52.374;4.816;2023-01-28T08:20:54;103103.0;;;4.08;84.47
37420;BME280;47344;52.374;4.816;2023-01-28T08:22:31;103104.0;;;4.2;84.02
37420;BME280;47344;52.374;4.816;2023-01-28T08:24:07;103099.0;;;4.21;83.91
37420;BME280;47344;52.374;4.816;2023-01-28T08:27:20;103099.0;;;4.13;84.04
37420;BME280;47344;52.374;4.816;2023-01-28T08:28:56;103100.0;;;4.34;83.49
37420;BME280;47344;52.374;4.816;2023-01-28T08:30:33;103100.0;;;4.42;83.11
37420;BME280;47344;52.374;4.816;2023-01-28T08:33:46;103103.0;;;4.57;82.31
37420;BME280;47344;52.374;4.816;2023-01-28T08:35:22;103103.0;;;4.47;82.16
37420;BME280;47344;52.374;4.816;2023-01-28T08:36:58;103101.0;;;4.33;83.44
37420;BME280;47344;52.374;4.816;2023-01-28T08:38:34;103105.0;;;4.33;83.4
37420;BME280;47344;52.374;4.816;2023-01-28T08:41:48;103105.0;;;4.3;83.21
37420;BME280;47344;52.374;4.816;2023-01-28T08:43:24;103111.99999999999;;;4.2;83.52
37420;BME280;47344;52.374;4.816;2023-01-28T08:45:01;103109.99999999999;;;4.04;83.92
37420;BME280;47344;52.374;4.816;2023-01-28T08:48:15;103116.00000000001;;;4.07;83.7
37420;BME280;47344;52.374;4.816;2023-01-28T08:49:52;103115.00000000001;;;3.95;84.51
37420;BME280;47344;52.374;4.816;2023-01-28T08:51:28;103119.0;;;3.9;84.82
37420;BME280;47344;52.374;4.816;2023-01-28T08:54:45;103122.0;;;3.99;84.73
37420;BME280;47344;52.374;4.816;2023-01-28T08:56:21;103117.0;;;3.86;85.27
37420;BME280;47344;52.374;4.816;2023-01-28T08:58:00;103117.0;;;4.09;84.9
37420;BME280;47344;52.374;4.816;2023-01-28T08:59:44;103119.0;;;4.05;85.03
37420;BME280;47344;52.374;4.816;2023-01-28T09:02:56;103128.0;;;4.03;85.05
37420;BME280;47344;52.374;4.816;2023-01-28T09:04:32;103142.0;;;4.18;84.68
37420;BME280;47344;52.374;4.816;2023-01-28T09:06:08;103142.0;;;4.16;84.28
37420;BME280;47344;52.374;4.816;2023-01-28T09:09:21;103138.00000000001;;;4.24;83.95
37420;BME280;47344;52.374;4.816;2023-01-28T09:10:58;103142.0;;;4.29;83.61
37420;BME280;47344;52.374;4.816;2023-01-28T09:12:35;103148.0;;;4.24;83.72
37420;BME280;47344;52.374;4.816;2023-01-28T09:14:13;103151.0;;;4.26;83.27
37420;BME280;47344;52.374;4.816;2023-01-28T09:17:26;103150.0;;;4.34;82.96
37420;BME280;47344;52.374;4.816;2023-01-28T09:19:02;103139.00000000001;;;4.41;82.75
37420;BME280;47344;52.374;4.816;2023-01-28T09:20:38;103149.0;;;4.41;82.73
37420;BME280;47344;52.374;4.816;2023-01-28T09:23:54;103147.0;;;4.32;83.26
37420;BME280;47344;52.374;4.816;2023-01-28T09:25:31;103143.0;;;4.37;83.24
37420;BME280;47344;52.374;4.816;2023-01-28T09:27:08;103148.0;;;4.37;83.11
37420;BME280;47344;52.374;4.816;2023-01-28T09:28:46;103152.0;;;4.28;83.3
37420;BME280;47344;52.374;4.816;2023-01-28T09:32:00;103155.0;;;4.29;83.63
37420;BME280;47344;52.374;4.816;2023-01-28T09:33:38;103150.0;;;4.28;83.91
37420;BME280;47344;52.374;4.816;2023-01-28T09:35:17;103153.0;;;4.37;83.84
37420;BME280;47344;52.374;4.816;2023-01-28T09:38:30;103155.0;;;4.37;83.81
37420;BME280;47344;52.374;4.816;2023-01-28T09:40:11;103155.0;;;4.41;83.58
37420;BME280;47344;52.374;4.816;2023-01-28T09:42:00;103155.0;;;4.41;83.27
37420;BME280;47344;52.374;4.816;2023-01-28T09:44:02;103163.00000000001;;;4.28;83.2
37420;BME280;47344;52.374;4.816;2023-01-28T09:45:43;103170.0;;;4.53;82.73
37420;BME280;47344;52.374;4.816;2023-01-28T09:49:11;103167.0;;;4.62;82.17
37420;BME280;47344;52.374;4.816;2023-01-28T09:50:53;103167.0;;;4.68;81.73
37420;BME280;47344;52.374;4.816;2023-01-28T09:52:33;103167.0;;;4.68;81.66
37420;BME280;47344;52.374;4.816;2023-01-28T09:54:23;103165.00000000001;;;4.61;82.01
37420;BME280;47344;52.374;4.816;2023-01-28T09:56:04;103172.0;;;4.45;82.63
37420;BME280;47344;52.374;4.816;2023-01-28T09:59:24;103168.0;;;4.39;83.01
37420;BME280;47344;52.374;4.816;2023-01-28T10:01:15;103171.0;;;4.49;82.91
37420;BME280;47344;52.374;4.816;2023-01-28T10:03:27;103173.0;;;4.61;82.43
37420;BME280;47344;52.374;4.816;2023-01-28T10:05:16;103173.0;;;4.58;81.83
37420;BME280;47344;52.374;4.816;2023-01-28T10:07:03;103167.0;;;4.68;81.58
37420;BME280;47344;52.374;4.816;2023-01-28T10:09:09;103164.00000000001;;;4.63;81.91
37420;BME280;47344;52.374;4.816;2023-01-28T10:11:17;103163.00000000001;;;4.78;81.28
37420;BME280;47344;52.374;4.816;2023-01-28T10:13:03;103158.99999999999;;;4.74;80.83
37420;BME280;47344;52.374;4.816;2023-01-28T10:14:55;103159.99999999999;;;4.74;80.89
37420;BME280;47344;52.374;4.816;2023-01-28T10:18:29;103163.00000000001;;;4.76;80.59
37420;BME280;47344;52.374;4.816;2023-01-28T10:20:17;103166.00000000001;;;4.84;80.19
37420;BME280;47344;52.374;4.816;2023-01-28T10:21:59;103165.00000000001;;;4.89;80.3
37420;BME280;47344;52.374;4.816;2023-01-28T10:23:45;103166.00000000001;;;5.04;79.97
37420;BME280;47344;52.374;4.816;2023-01-28T10:25:31;103168.0;;;4.93;80.39
37420;BME280;47344;52.374;4.816;2023-01-28T10:28:55;103164.00000000001;;;5.09;80.36
37420;BME280;47344;52.374;4.816;2023-01-28T10:30:34;103159.99999999999;;;5.12;80.16
37420;BME280;47344;52.374;4.816;2023-01-28T10:32:26;103156.0;;;5.03;79.59
37420;BME280;47344;52.374;4.816;2023-01-28T10:34:04;103144.0;;;5.24;79.27
37420;BME280;47344;52.374;4.816;2023-01-28T10:35:41;103139.00000000001;;;5.17;79.25
37420;BME280;47344;52.374;4.816;2023-01-28T10:38:55;103134.99999999999;;;5.24;78.66
37420;BME280;47344;52.374;4.816;2023-01-28T10:40:31;103133.0;;;5.4;78.19
37420;BME280;47344;52.374;4.816;2023-01-28T10:42:24;103128.0;;;5.43;78.08
37420;BME280;47344;52.374;4.816;2023-01-28T10:44:02;103121.0;;;5.48;77.67
37420;BME280;47344;52.374;4.816;2023-01-28T10:47:33;103122.0;;;5.57;77.03
37420;BME280;47344;52.374;4.816;2023-01-28T10:49:15;103115.00000000001;;;5.51;77.47
37420;BME280;47344;52.374;4.816;2023-01-28T10:50:55;103108.99999999999;;;5.43;78.39
37420;BME280;47344;52.374;4.816;2023-01-28T10:52:32;103101.0;;;5.43;78.81
37420;BME280;47344;52.374;4.816;2023-01-28T10:56:04;103096.0;;;5.43;77.38
37420;BME280;47344;52.374;4.816;2023-01-28T10:57:43;103092.0;;;5.58;77.05
37420;BME280;47344;52.374;4.816;2023-01-28T10:59:24;103081.0;;;5.57;77.22
37420;BME280;47344;52.374;4.816;2023-01-28T11:01:04;103075.0;;;5.56;77.31
37420;BME280;47344;52.374;4.816;2023-01-28T11:04:22;103070.0;;;5.57;77.59
37420;BME280;47344;52.374;4.816;2023-01-28T11:06:00;103067.0;;;5.67;77.55
37420;BME280;47344;52.374;4.816;2023-01-28T11:07:37;103064.00000000001;;;5.64;77.41
37420;BME280;47344;52.374;4.816;2023-01-28T11:09:22;103061.99999999999;;;5.78;77.94
37420;BME280;47344;52.374;4.816;2023-01-28T11:12:36;103056.0;;;5.85;77.47
37420;BME280;47344;52.374;4.816;2023-01-28T11:14:19;103049.0;;;5.83;77.22
37420;BME280;47344;52.374;4.816;2023-01-28T11:16:00;103038.00000000001;;;5.92;76.78
37420;BME280;47344;52.374;4.816;2023-01-28T11:17:47;103042.0;;;5.78;76.97
37420;BME280;47344;52.374;4.816;2023-01-28T11:21:15;103053.0;;;5.88;76.7
37420;BME280;47344;52.374;4.816;2023-01-28T11:22:55;103053.0;;;5.98;75.61